Weather at Aribinda Airport

Public forecast

Using degrees Celsius for public forecast. Weather courtesy of forecast.io.

Closest aviation weather report (METAR) to Aribinda Airport

Report is more than 6 hours old.

Closest report is Dori Airport, 50.7 nm (93.9 km) ESE. Retrieved 2009/09/21 17:00 UTC (11 years ago):

DFEE 211700Z 14002KT 9/9 FEW020 BKN260 34/21

Closest aviation forecast (TAF) to Aribinda Airport

Closest forecast is Ouagadougou Airport, 117.8 nm (218.2 km) SSW. Retrieved 2020-10-26 00:00 UTC (51 minutes ago):

TAF DFFD 252300Z 2600/2706 12008KT 8000 NSC TEMPO 2606/2610 3500 HZ TEMPO 2617/2621 4000 HZ